sensor_id;sensor_type;location;lat;lon;timestamp;P1;P2;P0
40371;PMS5003;28564;53.346;-6.554;2023-12-20T00:02:19;8;7;
40371;PMS5003;28564;53.346;-6.554;2023-12-20T00:04:46;5;3;
40371;PMS5003;28564;53.346;-6.554;2023-12-20T00:07:14;3;2;
40371;PMS5003;28564;53.346;-6.554;2023-12-20T00:09:42;9;4;
40371;PMS5003;28564;53.346;-6.554;2023-12-20T00:12:09;8;6;
40371;PMS5003;28564;53.346;-6.554;2023-12-20T00:14:37;8;7;
40371;PMS5003;28564;53.346;-6.554;2023-12-20T00:17:05;13;4;
40371;PMS5003;28564;53.346;-6.554;2023-12-20T00:19:32;15;7;
40371;PMS5003;28564;53.346;-6.554;2023-12-20T00:22:00;3;1;
40371;PMS5003;28564;53.346;-6.554;2023-12-20T00:24:27;4;3;
40371;PMS5003;28564;53.346;-6.554;2023-12-20T00:26:54;3;3;
40371;PMS5003;28564;53.346;-6.554;2023-12-20T00:29:21;4;2;
40371;PMS5003;28564;53.346;-6.554;2023-12-20T00:31:49;5;2;
40371;PMS5003;28564;53.346;-6.554;2023-12-20T00:34:16;6;3;
40371;PMS5003;28564;53.346;-6.554;2023-12-20T00:36:43;6;3;
40371;PMS5003;28564;53.346;-6.554;2023-12-20T00:39:11;4;2;
40371;PMS5003;28564;53.346;-6.554;2023-12-20T00:41:38;5;3;
40371;PMS5003;28564;53.346;-6.554;2023-12-20T00:44:05;4;2;
40371;PMS5003;28564;53.346;-6.554;2023-12-20T00:46:32;3;2;
40371;PMS5003;28564;53.346;-6.554;2023-12-20T00:49:00;1;1;
40371;PMS5003;28564;53.346;-6.554;2023-12-20T00:51:27;7;1;
40371;PMS5003;28564;53.346;-6.554;2023-12-20T00:53:54;6;2;
40371;PMS5003;28564;53.346;-6.554;2023-12-20T00:56:21;3;3;
40371;PMS5003;28564;53.346;-6.554;2023-12-20T00:58:49;5;2;
40371;PMS5003;28564;53.346;-6.554;2023-12-20T01:01:16;6;2;
40371;PMS5003;28564;53.346;-6.554;2023-12-20T01:03:43;1;1;
40371;PMS5003;28564;53.346;-6.554;2023-12-20T01:06:10;2;2;
40371;PMS5003;28564;53.346;-6.554;2023-12-20T01:08:38;3;2;
40371;PMS5003;28564;53.346;-6.554;2023-12-20T01:11:05;4;2;
40371;PMS5003;28564;53.346;-6.554;2023-12-20T01:13:32;4;2;
40371;PMS5003;28564;53.346;-6.554;2023-12-20T01:15:59;4;3;
40371;PMS5003;28564;53.346;-6.554;2023-12-20T01:18:27;4;3;
40371;PMS5003;28564;53.346;-6.554;2023-12-20T01:20:54;3;2;
40371;PMS5003;28564;53.346;-6.554;2023-12-20T01:23:21;2;2;
40371;PMS5003;28564;53.346;-6.554;2023-12-20T01:25:48;2;2;
40371;PMS5003;28564;53.346;-6.554;2023-12-20T01:28:15;2;1;
40371;PMS5003;28564;53.346;-6.554;2023-12-20T01:30:42;3;2;
40371;PMS5003;28564;53.346;-6.554;2023-12-20T01:33:09;2;2;
40371;PMS5003;28564;53.346;-6.554;2023-12-20T01:35:37;3;2;
40371;PMS5003;28564;53.346;-6.554;2023-12-20T01:38:04;7;3;
40371;PMS5003;28564;53.346;-6.554;2023-12-20T01:40:32;4;3;
40371;PMS5003;28564;53.346;-6.554;2023-12-20T01:42:59;3;1;
40371;PMS5003;28564;53.346;-6.554;2023-12-20T01:45:26;7;3;
40371;PMS5003;28564;53.346;-6.554;2023-12-20T01:47:53;3;1;
40371;PMS5003;28564;53.346;-6.554;2023-12-20T01:50:21;1;1;
40371;PMS5003;28564;53.346;-6.554;2023-12-20T01:52:50;1;1;
40371;PMS5003;28564;53.346;-6.554;2023-12-20T01:55:18;6;3;
40371;PMS5003;28564;53.346;-6.554;2023-12-20T01:57:46;4;2;
40371;PMS5003;28564;53.346;-6.554;2023-12-20T02:00:14;2;1;
40371;PMS5003;28564;53.346;-6.554;2023-12-20T02:02:41;0;0;
40371;PMS5003;28564;53.346;-6.554;2023-12-20T02:05:11;5;2;
40371;PMS5003;28564;53.346;-6.554;2023-12-20T02:07:39;4;2;
40371;PMS5003;28564;53.346;-6.554;2023-12-20T02:10:07;2;2;
40371;PMS5003;28564;53.346;-6.554;2023-12-20T02:12:35;2;1;
40371;PMS5003;28564;53.346;-6.554;2023-12-20T02:15:02;2;2;
40371;PMS5003;28564;53.346;-6.554;2023-12-20T02:17:30;2;1;
40371;PMS5003;28564;53.346;-6.554;2023-12-20T02:19:59;2;1;
40371;PMS5003;28564;53.346;-6.554;2023-12-20T02:22:26;2;2;
40371;PMS5003;28564;53.346;-6.554;2023-12-20T02:24:53;3;2;
40371;PMS5003;28564;53.346;-6.554;2023-12-20T02:27:20;2;2;
40371;PMS5003;28564;53.346;-6.554;2023-12-20T02:29:50;4;2;
40371;PMS5003;28564;53.346;-6.554;2023-12-20T02:32:17;2;2;
40371;PMS5003;28564;53.346;-6.554;2023-12-20T02:34:46;4;2;
40371;PMS5003;28564;53.346;-6.554;2023-12-20T02:37:14;6;2;
40371;PMS5003;28564;53.346;-6.554;2023-12-20T02:39:41;2;1;
40371;PMS5003;28564;53.346;-6.554;2023-12-20T02:42:09;2;1;
40371;PMS5003;28564;53.346;-6.554;2023-12-20T02:44:36;3;1;
40371;PMS5003;28564;53.346;-6.554;2023-12-20T02:47:03;0;0;
40371;PMS5003;28564;53.346;-6.554;2023-12-20T02:49:31;3;1;
40371;PMS5003;28564;53.346;-6.554;2023-12-20T02:51:58;1;1;
40371;PMS5003;28564;53.346;-6.554;2023-12-20T02:54:25;4;1;
40371;PMS5003;28564;53.346;-6.554;2023-12-20T02:56:52;1;1;
40371;PMS5003;28564;53.346;-6.554;2023-12-20T02:59:19;2;1;
40371;PMS5003;28564;53.346;-6.554;2023-12-20T03:01:46;1;1;
40371;PMS5003;28564;53.346;-6.554;2023-12-20T03:04:14;1;1;
40371;PMS5003;28564;53.346;-6.554;2023-12-20T03:06:41;3;2;
40371;PMS5003;28564;53.346;-6.554;2023-12-20T03:09:08;1;1;
40371;PMS5003;28564;53.346;-6.554;2023-12-20T03:11:35;1;1;
40371;PMS5003;28564;53.346;-6.554;2023-12-20T03:14:02;1;1;
40371;PMS5003;28564;53.346;-6.554;2023-12-20T03:16:30;3;2;
40371;PMS5003;28564;53.346;-6.554;2023-12-20T03:18:57;4;1;
40371;PMS5003;28564;53.346;-6.554;2023-12-20T03:21:24;4;2;
40371;PMS5003;28564;53.346;-6.554;2023-12-20T03:23:51;5;2;
40371;PMS5003;28564;53.346;-6.554;2023-12-20T03:26:18;4;1;
40371;PMS5003;28564;53.346;-6.554;2023-12-20T03:28:46;1;1;
40371;PMS5003;28564;53.346;-6.554;2023-12-20T03:31:13;5;2;
40371;PMS5003;28564;53.346;-6.554;2023-12-20T03:33:40;1;1;
40371;PMS5003;28564;53.346;-6.554;2023-12-20T03:36:07;0;0;
40371;PMS5003;28564;53.346;-6.554;2023-12-20T03:38:34;1;0;
40371;PMS5003;28564;53.346;-6.554;2023-12-20T03:41:02;5;3;
40371;PMS5003;28564;53.346;-6.554;2023-12-20T03:43:30;1;0;
40371;PMS5003;28564;53.346;-6.554;2023-12-20T03:45:58;1;1;
40371;PMS5003;28564;53.346;-6.554;2023-12-20T03:48:25;1;1;
40371;PMS5003;28564;53.346;-6.554;2023-12-20T03:50:52;3;1;
40371;PMS5003;28564;53.346;-6.554;2023-12-20T03:53:19;2;1;
40371;PMS5003;28564;53.346;-6.554;2023-12-20T03:55:47;2;2;
40371;PMS5003;28564;53.346;-6.554;2023-12-20T03:58:14;1;1;
40371;PMS5003;28564;53.346;-6.554;2023-12-20T04:00:41;3;1;
40371;PMS5003;28564;53.346;-6.554;2023-12-20T04:03:08;1;1;
40371;PMS5003;28564;53.346;-6.554;2023-12-20T04:05:35;1;1;
40371;PMS5003;28564;53.346;-6.554;2023-12-20T04:08:03;0;0;
40371;PMS5003;28564;53.346;-6.554;2023-12-20T04:10:31;1;1;
40371;PMS5003;28564;53.346;-6.554;2023-12-20T04:12:59;1;0;
40371;PMS5003;28564;53.346;-6.554;2023-12-20T04:15:26;1;1;
40371;PMS5003;28564;53.346;-6.554;2023-12-20T04:17:53;3;2;
40371;PMS5003;28564;53.346;-6.554;2023-12-20T04:20:20;4;2;
40371;PMS5003;28564;53.346;-6.554;2023-12-20T04:22:48;2;1;
40371;PMS5003;28564;53.346;-6.554;2023-12-20T04:25:15;2;1;
40371;PMS5003;28564;53.346;-6.554;2023-12-20T04:27:42;3;1;
40371;PMS5003;28564;53.346;-6.554;2023-12-20T04:30:10;2;1;
40371;PMS5003;28564;53.346;-6.554;2023-12-20T04:32:37;4;1;
40371;PMS5003;28564;53.346;-6.554;2023-12-20T04:35:05;1;0;
40371;PMS5003;28564;53.346;-6.554;2023-12-20T04:37:33;2;0;
40371;PMS5003;28564;53.346;-6.554;2023-12-20T04:40:00;1;1;
40371;PMS5003;28564;53.346;-6.554;2023-12-20T04:42:27;0;0;
40371;PMS5003;28564;53.346;-6.554;2023-12-20T04:44:54;4;1;
40371;PMS5003;28564;53.346;-6.554;2023-12-20T04:47:22;1;1;
40371;PMS5003;28564;53.346;-6.554;2023-12-20T04:49:49;1;1;
40371;PMS5003;28564;53.346;-6.554;2023-12-20T04:52:16;0;0;
40371;PMS5003;28564;53.346;-6.554;2023-12-20T04:54:43;2;1;
40371;PMS5003;28564;53.346;-6.554;2023-12-20T04:57:10;1;0;
40371;PMS5003;28564;53.346;-6.554;2023-12-20T04:59:38;2;0;
40371;PMS5003;28564;53.346;-6.554;2023-12-20T05:02:05;3;1;
40371;PMS5003;28564;53.346;-6.554;2023-12-20T05:04:32;3;2;
40371;PMS5003;28564;53.346;-6.554;2023-12-20T05:06:59;2;1;
40371;PMS5003;28564;53.346;-6.554;2023-12-20T05:09:26;1;1;
40371;PMS5003;28564;53.346;-6.554;2023-12-20T05:11:54;0;0;
40371;PMS5003;28564;53.346;-6.554;2023-12-20T05:14:21;1;1;
40371;PMS5003;28564;53.346;-6.554;2023-12-20T05:16:48;4;0;
40371;PMS5003;28564;53.346;-6.554;2023-12-20T05:19:15;2;0;
40371;PMS5003;28564;53.346;-6.554;2023-12-20T05:21:42;0;0;
40371;PMS5003;28564;53.346;-6.554;2023-12-20T05:24:10;3;1;
40371;PMS5003;28564;53.346;-6.554;2023-12-20T05:26:37;0;0;
40371;PMS5003;28564;53.346;-6.554;2023-12-20T05:29:04;2;1;
40371;PMS5003;28564;53.346;-6.554;2023-12-20T05:31:32;1;1;
40371;PMS5003;28564;53.346;-6.554;2023-12-20T05:33:59;3;1;
40371;PMS5003;28564;53.346;-6.554;2023-12-20T05:36:26;2;0;
40371;PMS5003;28564;53.346;-6.554;2023-12-20T05:38:53;1;1;
40371;PMS5003;28564;53.346;-6.554;2023-12-20T05:41:20;1;0;
40371;PMS5003;28564;53.346;-6.554;2023-12-20T05:43:48;3;1;
40371;PMS5003;28564;53.346;-6.554;2023-12-20T05:46:15;2;0;
40371;PMS5003;28564;53.346;-6.554;2023-12-20T05:48:42;0;0;
40371;PMS5003;28564;53.346;-6.554;2023-12-20T05:51:11;2;0;
40371;PMS5003;28564;53.346;-6.554;2023-12-20T05:53:38;2;0;
40371;PMS5003;28564;53.346;-6.554;2023-12-20T05:56:05;2;2;
40371;PMS5003;28564;53.346;-6.554;2023-12-20T05:58:33;3;2;
40371;PMS5003;28564;53.346;-6.554;2023-12-20T06:01:00;4;3;
40371;PMS5003;28564;53.346;-6.554;2023-12-20T06:03:30;2;1;
40371;PMS5003;28564;53.346;-6.554;2023-12-20T06:05:57;1;0;
40371;PMS5003;28564;53.346;-6.554;2023-12-20T06:08:24;1;1;
40371;PMS5003;28564;53.346;-6.554;2023-12-20T06:10:51;2;0;
40371;PMS5003;28564;53.346;-6.554;2023-12-20T06:13:18;2;1;
40371;PMS5003;28564;53.346;-6.554;2023-12-20T06:15:46;3;1;
40371;PMS5003;28564;53.346;-6.554;2023-12-20T06:18:13;3;2;
40371;PMS5003;28564;53.346;-6.554;2023-12-20T06:20:40;3;1;
40371;PMS5003;28564;53.346;-6.554;2023-12-20T06:23:07;2;2;
40371;PMS5003;28564;53.346;-6.554;2023-12-20T06:25:35;2;0;
40371;PMS5003;28564;53.346;-6.554;2023-12-20T06:28:02;2;1;
40371;PMS5003;28564;53.346;-6.554;2023-12-20T06:30:29;3;1;
40371;PMS5003;28564;53.346;-6.554;2023-12-20T06:32:56;4;2;
40371;PMS5003;28564;53.346;-6.554;2023-12-20T06:35:23;3;1;
40371;PMS5003;28564;53.346;-6.554;2023-12-20T06:37:51;5;1;
40371;PMS5003;28564;53.346;-6.554;2023-12-20T06:40:18;2;2;
40371;PMS5003;28564;53.346;-6.554;2023-12-20T06:42:45;0;0;
40371;PMS5003;28564;53.346;-6.554;2023-12-20T06:45:12;1;1;
40371;PMS5003;28564;53.346;-6.554;2023-12-20T06:47:39;1;0;
40371;PMS5003;28564;53.346;-6.554;2023-12-20T06:50:07;0;0;
40371;PMS5003;28564;53.346;-6.554;2023-12-20T06:52:35;1;0;
40371;PMS5003;28564;53.346;-6.554;2023-12-20T06:55:02;2;1;
40371;PMS5003;28564;53.346;-6.554;2023-12-20T06:57:29;1;1;
40371;PMS5003;28564;53.346;-6.554;2023-12-20T06:59:57;0;0;
40371;PMS5003;28564;53.346;-6.554;2023-12-20T07:02:24;1;1;
40371;PMS5003;28564;53.346;-6.554;2023-12-20T07:04:51;4;1;
40371;PMS5003;28564;53.346;-6.554;2023-12-20T07:07:18;1;1;
40371;PMS5003;28564;53.346;-6.554;2023-12-20T07:09:45;2;1;
40371;PMS5003;28564;53.346;-6.554;2023-12-20T07:12:13;3;2;
40371;PMS5003;28564;53.346;-6.554;2023-12-20T07:14:40;2;2;
40371;PMS5003;28564;53.346;-6.554;2023-12-20T07:17:07;2;1;
40371;PMS5003;28564;53.346;-6.554;2023-12-20T07:19:34;0;0;
40371;PMS5003;28564;53.346;-6.554;2023-12-20T07:22:01;0;0;
40371;PMS5003;28564;53.346;-6.554;2023-12-20T07:24:28;3;1;
40371;PMS5003;28564;53.346;-6.554;2023-12-20T07:26:56;2;2;
40371;PMS5003;28564;53.346;-6.554;2023-12-20T07:29:23;1;1;
40371;PMS5003;28564;53.346;-6.554;2023-12-20T07:31:50;2;0;
40371;PMS5003;28564;53.346;-6.554;2023-12-20T07:34:18;3;2;
40371;PMS5003;28564;53.346;-6.554;2023-12-20T07:36:45;2;2;
40371;PMS5003;28564;53.346;-6.554;2023-12-20T07:39:13;8;3;
40371;PMS5003;28564;53.346;-6.554;2023-12-20T07:41:41;4;1;
40371;PMS5003;28564;53.346;-6.554;2023-12-20T07:44:08;3;2;
40371;PMS5003;28564;53.346;-6.554;2023-12-20T07:46:35;3;1;
40371;PMS5003;28564;53.346;-6.554;2023-12-20T07:49:03;3;1;
40371;PMS5003;28564;53.346;-6.554;2023-12-20T07:51:31;2;2;
40371;PMS5003;28564;53.346;-6.554;2023-12-20T07:53:59;0;0;
40371;PMS5003;28564;53.346;-6.554;2023-12-20T07:56:26;3;2;
40371;PMS5003;28564;53.346;-6.554;2023-12-20T07:58:54;8;1;
40371;PMS5003;28564;53.346;-6.554;2023-12-20T08:01:21;4;2;
40371;PMS5003;28564;53.346;-6.554;2023-12-20T08:03:49;1;1;
40371;PMS5003;28564;53.346;-6.554;2023-12-20T08:06:16;2;1;
40371;PMS5003;28564;53.346;-6.554;2023-12-20T08:08:43;2;2;
40371;PMS5003;28564;53.346;-6.554;2023-12-20T08:11:11;6;3;
40371;PMS5003;28564;53.346;-6.554;2023-12-20T08:13:37;5;2;
40371;PMS5003;28564;53.346;-6.554;2023-12-20T08:16:05;2;1;
40371;PMS5003;28564;53.346;-6.554;2023-12-20T08:18:32;2;1;
40371;PMS5003;28564;53.346;-6.554;2023-12-20T08:20:59;0;0;
40371;PMS5003;28564;53.346;-6.554;2023-12-20T08:23:26;3;2;
40371;PMS5003;28564;53.346;-6.554;2023-12-20T08:25:53;1;1;
40371;PMS5003;28564;53.346;-6.554;2023-12-20T08:28:21;3;1;
40371;PMS5003;28564;53.346;-6.554;2023-12-20T08:30:48;6;3;
40371;PMS5003;28564;53.346;-6.554;2023-12-20T08:33:16;3;3;
40371;PMS5003;28564;53.346;-6.554;2023-12-20T08:35:43;2;2;
40371;PMS5003;28564;53.346;-6.554;2023-12-20T08:38:10;4;2;
40371;PMS5003;28564;53.346;-6.554;2023-12-20T08:40:37;2;2;
40371;PMS5003;28564;53.346;-6.554;2023-12-20T08:43:04;3;2;
40371;PMS5003;28564;53.346;-6.554;2023-12-20T08:45:32;0;0;
40371;PMS5003;28564;53.346;-6.554;2023-12-20T08:48:00;3;2;
40371;PMS5003;28564;53.346;-6.554;2023-12-20T08:50:27;3;2;
40371;PMS5003;28564;53.346;-6.554;2023-12-20T08:52:55;2;2;
40371;PMS5003;28564;53.346;-6.554;2023-12-20T08:55:22;6;2;
40371;PMS5003;28564;53.346;-6.554;2023-12-20T08:57:49;4;3;
40371;PMS5003;28564;53.346;-6.554;2023-12-20T09:00:16;6;3;
40371;PMS5003;28564;53.346;-6.554;2023-12-20T09:02:44;2;2;
40371;PMS5003;28564;53.346;-6.554;2023-12-20T09:05:12;6;2;
40371;PMS5003;28564;53.346;-6.554;2023-12-20T09:07:38;6;2;
40371;PMS5003;28564;53.346;-6.554;2023-12-20T09:10:06;8;2;
40371;PMS5003;28564;53.346;-6.554;2023-12-20T09:12:34;1;1;
40371;PMS5003;28564;53.346;-6.554;2023-12-20T09:15:01;4;2;
40371;PMS5003;28564;53.346;-6.554;2023-12-20T09:17:28;3;2;
40371;PMS5003;28564;53.346;-6.554;2023-12-20T09:19:55;4;2;
40371;PMS5003;28564;53.346;-6.554;2023-12-20T09:22:22;4;3;
40371;PMS5003;28564;53.346;-6.554;2023-12-20T09:24:49;3;1;
40371;PMS5003;28564;53.346;-6.554;2023-12-20T09:27:16;5;4;
40371;PMS5003;28564;53.346;-6.554;2023-12-20T09:29:44;8;6;
40371;PMS5003;28564;53.346;-6.554;2023-12-20T09:32:11;3;2;
40371;PMS5003;28564;53.346;-6.554;2023-12-20T09:34:38;6;4;
40371;PMS5003;28564;53.346;-6.554;2023-12-20T09:37:06;5;4;
40371;PMS5003;28564;53.346;-6.554;2023-12-20T09:39:33;7;3;
40371;PMS5003;28564;53.346;-6.554;2023-12-20T09:42:01;6;4;
40371;PMS5003;28564;53.346;-6.554;2023-12-20T09:44:29;5;4;
40371;PMS5003;28564;53.346;-6.554;2023-12-20T09:46:58;4;2;
40371;PMS5003;28564;53.346;-6.554;2023-12-20T09:49:28;4;4;
40371;PMS5003;28564;53.346;-6.554;2023-12-20T09:51:57;3;3;
40371;PMS5003;28564;53.346;-6.554;2023-12-20T09:54:26;5;3;
40371;PMS5003;28564;53.346;-6.554;2023-12-20T09:56:55;4;3;
40371;PMS5003;28564;53.346;-6.554;2023-12-20T09:59:22;6;6;
40371;PMS5003;28564;53.346;-6.554;2023-12-20T10:01:50;6;3;
40371;PMS5003;28564;53.346;-6.554;2023-12-20T10:04:19;5;3;
40371;PMS5003;28564;53.346;-6.554;2023-12-20T10:06:47;6;3;
40371;PMS5003;28564;53.346;-6.554;2023-12-20T10:09:14;7;6;
40371;PMS5003;28564;53.346;-6.554;2023-12-20T10:11:41;6;3;
40371;PMS5003;28564;53.346;-6.554;2023-12-20T10:14:10;5;2;
40371;PMS5003;28564;53.346;-6.554;2023-12-20T10:16:37;5;3;
40371;PMS5003;28564;53.346;-6.554;2023-12-20T10:19:04;11;6;
40371;PMS5003;28564;53.346;-6.554;2023-12-20T10:21:31;8;4;
40371;PMS5003;28564;53.346;-6.554;2023-12-20T10:23:59;6;4;
40371;PMS5003;28564;53.346;-6.554;2023-12-20T10:26:28;11;5;
40371;PMS5003;28564;53.346;-6.554;2023-12-20T10:28:55;8;3;
40371;PMS5003;28564;53.346;-6.554;2023-12-20T10:31:27;8;4;
40371;PMS5003;28564;53.346;-6.554;2023-12-20T10:33:56;6;5;
40371;PMS5003;28564;53.346;-6.554;2023-12-20T10:36:25;9;5;
40371;PMS5003;28564;53.346;-6.554;2023-12-20T10:38:53;7;4;
40371;PMS5003;28564;53.346;-6.554;2023-12-20T10:41:24;5;4;
40371;PMS5003;28564;53.346;-6.554;2023-12-20T10:43:52;6;3;
40371;PMS5003;28564;53.346;-6.554;2023-12-20T10:46:20;5;2;
40371;PMS5003;28564;53.346;-6.554;2023-12-20T10:48:48;6;3;
40371;PMS5003;28564;53.346;-6.554;2023-12-20T10:51:18;8;4;
40371;PMS5003;28564;53.346;-6.554;2023-12-20T10:53:47;8;4;
40371;PMS5003;28564;53.346;-6.554;2023-12-20T10:56:15;9;4;
40371;PMS5003;28564;53.346;-6.554;2023-12-20T10:58:45;11;6;
40371;PMS5003;28564;53.346;-6.554;2023-12-20T11:01:13;10;7;
40371;PMS5003;28564;53.346;-6.554;2023-12-20T11:03:42;7;3;
40371;PMS5003;28564;53.346;-6.554;2023-12-20T11:06:19;9;5;
40371;PMS5003;28564;53.346;-6.554;2023-12-20T11:08:55;7;5;
40371;PMS5003;28564;53.346;-6.554;2023-12-20T11:11:30;9;6;
40371;PMS5003;28564;53.346;-6.554;2023-12-20T11:14:03;7;5;
40371;PMS5003;28564;53.346;-6.554;2023-12-20T11:16:33;5;2;
40371;PMS5003;28564;53.346;-6.554;2023-12-20T11:19:04;9;6;
40371;PMS5003;28564;53.346;-6.554;2023-12-20T11:21:32;11;4;
40371;PMS5003;28564;53.346;-6.554;2023-12-20T11:23:59;7;4;
40371;PMS5003;28564;53.346;-6.554;2023-12-20T11:26:28;8;5;
40371;PMS5003;28564;53.346;-6.554;2023-12-20T11:29:05;5;4;
40371;PMS5003;28564;53.346;-6.554;2023-12-20T11:31:56;11;6;
40371;PMS5003;28564;53.346;-6.554;2023-12-20T11:34:26;10;9;
40371;PMS5003;28564;53.346;-6.554;2023-12-20T11:36:58;13;8;
40371;PMS5003;28564;53.346;-6.554;2023-12-20T11:39:26;11;6;
40371;PMS5003;28564;53.346;-6.554;2023-12-20T11:41:55;10;5;
40371;PMS5003;28564;53.346;-6.554;2023-12-20T11:44:23;12;7;
40371;PMS5003;28564;53.346;-6.554;2023-12-20T11:46:51;3;3;
40371;PMS5003;28564;53.346;-6.554;2023-12-20T11:49:22;8;5;
40371;PMS5003;28564;53.346;-6.554;2023-12-20T11:51:50;12;7;
40371;PMS5003;28564;53.346;-6.554;2023-12-20T11:54:17;6;5;
40371;PMS5003;28564;53.346;-6.554;2023-12-20T11:56:45;16;12;
40371;PMS5003;28564;53.346;-6.554;2023-12-20T11:59:14;7;4;
40371;PMS5003;28564;53.346;-6.554;2023-12-20T12:01:47;12;6;
40371;PMS5003;28564;53.346;-6.554;2023-12-20T12:04:15;10;9;
40371;PMS5003;28564;53.346;-6.554;2023-12-20T12:06:42;10;5;
40371;PMS5003;28564;53.346;-6.554;2023-12-20T12:09:10;12;7;
40371;PMS5003;28564;53.346;-6.554;2023-12-20T12:11:37;7;6;
40371;PMS5003;28564;53.346;-6.554;2023-12-20T12:14:06;8;7;
40371;PMS5003;28564;53.346;-6.554;2023-12-20T12:16:34;5;5;
40371;PMS5003;28564;53.346;-6.554;2023-12-20T12:19:02;14;6;
40371;PMS5003;28564;53.346;-6.554;2023-12-20T12:21:29;14;6;
40371;PMS5003;28564;53.346;-6.554;2023-12-20T12:24:05;6;5;
40371;PMS5003;28564;53.346;-6.554;2023-12-20T12:26:33;15;4;
40371;PMS5003;28564;53.346;-6.554;2023-12-20T12:29:01;10;4;
40371;PMS5003;28564;53.346;-6.554;2023-12-20T12:31:28;13;7;
40371;PMS5003;28564;53.346;-6.554;2023-12-20T12:33:55;9;6;
40371;PMS5003;28564;53.346;-6.554;2023-12-20T12:36:23;9;4;
40371;PMS5003;28564;53.346;-6.554;2023-12-20T12:38:50;9;5;
40371;PMS5003;28564;53.346;-6.554;2023-12-20T12:41:17;8;4;
40371;PMS5003;28564;53.346;-6.554;2023-12-20T12:43:44;10;6;
40371;PMS5003;28564;53.346;-6.554;2023-12-20T12:46:11;6;6;
40371;PMS5003;28564;53.346;-6.554;2023-12-20T12:48:38;8;7;
40371;PMS5003;28564;53.346;-6.554;2023-12-20T12:51:05;7;3;
40371;PMS5003;28564;53.346;-6.554;2023-12-20T12:53:33;7;5;
40371;PMS5003;28564;53.346;-6.554;2023-12-20T12:56:00;5;5;
40371;PMS5003;28564;53.346;-6.554;2023-12-20T12:58:27;7;4;
40371;PMS5003;28564;53.346;-6.554;2023-12-20T13:00:54;12;6;
40371;PMS5003;28564;53.346;-6.554;2023-12-20T13:03:22;8;5;
40371;PMS5003;28564;53.346;-6.554;2023-12-20T13:05:49;6;4;
40371;PMS5003;28564;53.346;-6.554;2023-12-20T13:08:16;9;7;
40371;PMS5003;28564;53.346;-6.554;2023-12-20T13:10:43;10;5;
40371;PMS5003;28564;53.346;-6.554;2023-12-20T13:13:10;9;3;
40371;PMS5003;28564;53.346;-6.554;2023-12-20T13:15:37;8;5;
40371;PMS5003;28564;53.346;-6.554;2023-12-20T13:18:05;13;5;
40371;PMS5003;28564;53.346;-6.554;2023-12-20T13:20:32;9;4;
40371;PMS5003;28564;53.346;-6.554;2023-12-20T13:23:00;8;4;
40371;PMS5003;28564;53.346;-6.554;2023-12-20T13:25:27;6;4;
40371;PMS5003;28564;53.346;-6.554;2023-12-20T13:27:54;12;6;
40371;PMS5003;28564;53.346;-6.554;2023-12-20T13:30:21;6;3;
40371;PMS5003;28564;53.346;-6.554;2023-12-20T13:32:48;11;5;
40371;PMS5003;28564;53.346;-6.554;2023-12-20T13:35:15;5;5;
40371;PMS5003;28564;53.346;-6.554;2023-12-20T13:37:42;11;8;
40371;PMS5003;28564;53.346;-6.554;2023-12-20T13:40:10;9;5;
40371;PMS5003;28564;53.346;-6.554;2023-12-20T13:42:38;7;5;
40371;PMS5003;28564;53.346;-6.554;2023-12-20T13:45:05;8;5;
40371;PMS5003;28564;53.346;-6.554;2023-12-20T13:47:34;9;4;
40371;PMS5003;28564;53.346;-6.554;2023-12-20T13:50:02;6;4;
40371;PMS5003;28564;53.346;-6.554;2023-12-20T13:52:29;8;5;
40371;PMS5003;28564;53.346;-6.554;2023-12-20T13:54:57;5;3;
40371;PMS5003;28564;53.346;-6.554;2023-12-20T13:57:25;8;4;
40371;PMS5003;28564;53.346;-6.554;2023-12-20T13:59:52;6;4;
40371;PMS5003;28564;53.346;-6.554;2023-12-20T14:02:19;8;5;
40371;PMS5003;28564;53.346;-6.554;2023-12-20T14:04:46;8;5;
40371;PMS5003;28564;53.346;-6.554;2023-12-20T14:07:13;7;5;
40371;PMS5003;28564;53.346;-6.554;2023-12-20T14:09:40;6;2;
40371;PMS5003;28564;53.346;-6.554;2023-12-20T14:12:08;6;6;
40371;PMS5003;28564;53.346;-6.554;2023-12-20T14:14:36;7;4;
40371;PMS5003;28564;53.346;-6.554;2023-12-20T14:17:03;8;4;
40371;PMS5003;28564;53.346;-6.554;2023-12-20T14:19:30;4;4;
40371;PMS5003;28564;53.346;-6.554;2023-12-20T14:21:57;9;6;
40371;PMS5003;28564;53.346;-6.554;2023-12-20T14:24:24;5;3;
40371;PMS5003;28564;53.346;-6.554;2023-12-20T14:26:52;4;4;
40371;PMS5003;28564;53.346;-6.554;2023-12-20T14:29:19;4;4;
40371;PMS5003;28564;53.346;-6.554;2023-12-20T14:31:46;4;2;
40371;PMS5003;28564;53.346;-6.554;2023-12-20T14:34:14;4;2;
40371;PMS5003;28564;53.346;-6.554;2023-12-20T14:36:41;2;1;
40371;PMS5003;28564;53.346;-6.554;2023-12-20T14:39:09;5;3;
40371;PMS5003;28564;53.346;-6.554;2023-12-20T14:41:36;3;2;
40371;PMS5003;28564;53.346;-6.554;2023-12-20T14:44:03;5;2;
40371;PMS5003;28564;53.346;-6.554;2023-12-20T14:46:31;3;2;
40371;PMS5003;28564;53.346;-6.554;2023-12-20T14:48:58;4;2;
40371;PMS5003;28564;53.346;-6.554;2023-12-20T14:51:25;1;1;
40371;PMS5003;28564;53.346;-6.554;2023-12-20T14:53:53;1;1;
40371;PMS5003;28564;53.346;-6.554;2023-12-20T14:56:20;4;2;
40371;PMS5003;28564;53.346;-6.554;2023-12-20T14:58:49;2;1;
40371;PMS5003;28564;53.346;-6.554;2023-12-20T15:01:16;1;1;
40371;PMS5003;28564;53.346;-6.554;2023-12-20T15:03:43;3;1;
40371;PMS5003;28564;53.346;-6.554;2023-12-20T15:06:10;0;0;
40371;PMS5003;28564;53.346;-6.554;2023-12-20T15:08:37;2;2;
40371;PMS5003;28564;53.346;-6.554;2023-12-20T15:11:04;4;4;
40371;PMS5003;28564;53.346;-6.554;2023-12-20T15:13:32;3;1;
40371;PMS5003;28564;53.346;-6.554;2023-12-20T15:15:59;1;0;
40371;PMS5003;28564;53.346;-6.554;2023-12-20T15:18:27;0;0;
40371;PMS5003;28564;53.346;-6.554;2023-12-20T15:20:54;3;0;
40371;PMS5003;28564;53.346;-6.554;2023-12-20T15:23:21;1;0;
40371;PMS5003;28564;53.346;-6.554;2023-12-20T15:25:48;1;1;
40371;PMS5003;28564;53.346;-6.554;2023-12-20T15:28:15;2;0;
40371;PMS5003;28564;53.346;-6.554;2023-12-20T15:30:42;0;0;
40371;PMS5003;28564;53.346;-6.554;2023-12-20T15:33:10;0;0;
40371;PMS5003;28564;53.346;-6.554;2023-12-20T15:35:37;1;0;
40371;PMS5003;28564;53.346;-6.554;2023-12-20T15:38:04;1;1;
40371;PMS5003;28564;53.346;-6.554;2023-12-20T15:40:31;0;0;
40371;PMS5003;28564;53.346;-6.554;2023-12-20T15:42:58;1;1;
40371;PMS5003;28564;53.346;-6.554;2023-12-20T15:45:25;1;1;
40371;PMS5003;28564;53.346;-6.554;2023-12-20T15:47:52;3;1;
40371;PMS5003;28564;53.346;-6.554;2023-12-20T15:50:20;1;1;
40371;PMS5003;28564;53.346;-6.554;2023-12-20T15:52:47;0;0;
40371;PMS5003;28564;53.346;-6.554;2023-12-20T15:55:15;0;0;
40371;PMS5003;28564;53.346;-6.554;2023-12-20T15:57:42;2;1;
40371;PMS5003;28564;53.346;-6.554;2023-12-20T16:00:09;1;1;
40371;PMS5003;28564;53.346;-6.554;2023-12-20T16:02:37;1;0;
40371;PMS5003;28564;53.346;-6.554;2023-12-20T16:05:04;1;1;
40371;PMS5003;28564;53.346;-6.554;2023-12-20T16:07:32;0;0;
40371;PMS5003;28564;53.346;-6.554;2023-12-20T16:09:59;1;1;
40371;PMS5003;28564;53.346;-6.554;2023-12-20T16:12:26;1;1;
40371;PMS5003;28564;53.346;-6.554;2023-12-20T16:14:54;2;1;
40371;PMS5003;28564;53.346;-6.554;2023-12-20T16:17:21;2;1;
40371;PMS5003;28564;53.346;-6.554;2023-12-20T16:19:48;2;0;
40371;PMS5003;28564;53.346;-6.554;2023-12-20T16:22:15;2;0;
40371;PMS5003;28564;53.346;-6.554;2023-12-20T16:24:42;1;1;
40371;PMS5003;28564;53.346;-6.554;2023-12-20T16:27:09;1;1;
40371;PMS5003;28564;53.346;-6.554;2023-12-20T16:29:36;1;0;
40371;PMS5003;28564;53.346;-6.554;2023-12-20T16:32:04;2;2;
40371;PMS5003;28564;53.346;-6.554;2023-12-20T16:34:32;2;0;
40371;PMS5003;28564;53.346;-6.554;2023-12-20T16:37:00;3;0;